sensor_id;sensor_type;location;lat;lon;timestamp;temperature;humidity
61153;DHT22;47030;50.732;4.286;2022-08-04T00:00:22;22.30;95.00
61153;DHT22;47030;50.732;4.286;2022-08-04T00:03:18;22.30;95.00
61153;DHT22;47030;50.732;4.286;2022-08-04T00:08:40;22.30;95.20
61153;DHT22;47030;50.732;4.286;2022-08-04T00:11:10;22.30;95.20
61153;DHT22;47030;50.732;4.286;2022-08-04T00:13:38;22.30;95.20
61153;DHT22;47030;50.732;4.286;2022-08-04T00:16:09;22.30;94.90
61153;DHT22;47030;50.732;4.286;2022-08-04T00:18:43;22.30;94.70
61153;DHT22;47030;50.732;4.286;2022-08-04T00:21:12;22.20;94.90
61153;DHT22;47030;50.732;4.286;2022-08-04T00:23:42;22.10;95.30
61153;DHT22;47030;50.732;4.286;2022-08-04T00:26:09;21.90;95.70
61153;DHT22;47030;50.732;4.286;2022-08-04T00:28:36;21.90;96.00
61153;DHT22;47030;50.732;4.286;2022-08-04T00:31:09;21.90;96.10
61153;DHT22;47030;50.732;4.286;2022-08-04T00:33:37;21.90;96.20
61153;DHT22;47030;50.732;4.286;2022-08-04T00:36:03;21.80;96.30
61153;DHT22;47030;50.732;4.286;2022-08-04T00:38:30;21.80;96.20
61153;DHT22;47030;50.732;4.286;2022-08-04T00:43:34;21.70;96.30
61153;DHT22;47030;50.732;4.286;2022-08-04T00:46:27;21.80;96.30
61153;DHT22;47030;50.732;4.286;2022-08-04T00:51:55;21.70;96.30
61153;DHT22;47030;50.732;4.286;2022-08-04T00:54:48;21.60;96.50
61153;DHT22;47030;50.732;4.286;2022-08-04T01:00:09;21.50;96.90
61153;DHT22;47030;50.732;4.286;2022-08-04T01:05:11;21.50;97.40
61153;DHT22;47030;50.732;4.286;2022-08-04T01:16:06;21.40;97.40
61153;DHT22;47030;50.732;4.286;2022-08-04T01:26:40;21.30;97.80
61153;DHT22;47030;50.732;4.286;2022-08-04T01:29:10;21.20;98.00
61153;DHT22;47030;50.732;4.286;2022-08-04T01:35:01;21.20;98.20
61153;DHT22;47030;50.732;4.286;2022-08-04T01:38:00;21.20;97.90
61153;DHT22;47030;50.732;4.286;2022-08-04T01:40:27;21.30;97.60
61153;DHT22;47030;50.732;4.286;2022-08-04T01:42:54;21.30;97.60
61153;DHT22;47030;50.732;4.286;2022-08-04T01:45:23;21.30;97.70
61153;DHT22;47030;50.732;4.286;2022-08-04T01:47:51;21.20;98.20
61153;DHT22;47030;50.732;4.286;2022-08-04T01:50:18;21.10;98.10
61153;DHT22;47030;50.732;4.286;2022-08-04T01:52:44;21.10;98.20
61153;DHT22;47030;50.732;4.286;2022-08-04T01:55:13;21.00;98.30
61153;DHT22;47030;50.732;4.286;2022-08-04T01:57:44;21.00;98.10
61153;DHT22;47030;50.732;4.286;2022-08-04T02:00:13;21.00;97.90
61153;DHT22;47030;50.732;4.286;2022-08-04T02:02:39;21.00;98.10
61153;DHT22;47030;50.732;4.286;2022-08-04T02:05:05;20.90;98.30
61153;DHT22;47030;50.732;4.286;2022-08-04T02:13:23;20.80;98.90
61153;DHT22;47030;50.732;4.286;2022-08-04T02:18:23;20.60;99.20
61153;DHT22;47030;50.732;4.286;2022-08-04T02:20:54;20.60;99.10
61153;DHT22;47030;50.732;4.286;2022-08-04T02:23:36;20.70;99.10
61153;DHT22;47030;50.732;4.286;2022-08-04T02:26:16;20.60;99.30
61153;DHT22;47030;50.732;4.286;2022-08-04T02:28:50;20.60;99.10
61153;DHT22;47030;50.732;4.286;2022-08-04T02:34:08;20.80;99.10
61153;DHT22;47030;50.732;4.286;2022-08-04T02:36:39;20.70;99.00
61153;DHT22;47030;50.732;4.286;2022-08-04T02:39:07;20.70;99.00
61153;DHT22;47030;50.732;4.286;2022-08-04T02:41:35;20.60;99.10
61153;DHT22;47030;50.732;4.286;2022-08-04T02:44:06;20.60;99.30
61153;DHT22;47030;50.732;4.286;2022-08-04T02:46:34;20.50;99.50
61153;DHT22;47030;50.732;4.286;2022-08-04T02:49:07;20.60;99.50
61153;DHT22;47030;50.732;4.286;2022-08-04T02:51:37;20.60;99.50
61153;DHT22;47030;50.732;4.286;2022-08-04T02:54:06;20.60;99.20
61153;DHT22;47030;50.732;4.286;2022-08-04T02:56:33;20.60;99.00
61153;DHT22;47030;50.732;4.286;2022-08-04T02:59:11;20.50;98.80
61153;DHT22;47030;50.732;4.286;2022-08-04T03:01:39;20.40;98.90
61153;DHT22;47030;50.732;4.286;2022-08-04T03:21:15;20.40;99.40
61153;DHT22;47030;50.732;4.286;2022-08-04T03:27:21;20.40;99.30
61153;DHT22;47030;50.732;4.286;2022-08-04T03:38:31;20.40;99.70
61153;DHT22;47030;50.732;4.286;2022-08-04T03:41:30;20.40;99.00
61153;DHT22;47030;50.732;4.286;2022-08-04T03:58:45;20.20;99.50
61153;DHT22;47030;50.732;4.286;2022-08-04T04:10:16;20.20;99.50
61153;DHT22;47030;50.732;4.286;2022-08-04T04:13:12;20.20;99.50
61153;DHT22;47030;50.732;4.286;2022-08-04T04:33:51;20.30;99.70
61153;DHT22;47030;50.732;4.286;2022-08-04T04:36:43;20.30;99.80
61153;DHT22;47030;50.732;4.286;2022-08-04T04:44:51;20.50;99.20
61153;DHT22;47030;50.732;4.286;2022-08-04T04:52:46;20.80;98.70
61153;DHT22;47030;50.732;4.286;2022-08-04T04:55:20;20.90;98.70
61153;DHT22;47030;50.732;4.286;2022-08-04T04:57:55;21.00;98.60
61153;DHT22;47030;50.732;4.286;2022-08-04T05:00:25;21.20;98.40
61153;DHT22;47030;50.732;4.286;2022-08-04T05:14:45;22.90;94.50
61153;DHT22;47030;50.732;4.286;2022-08-04T05:17:24;22.90;94.40
61153;DHT22;47030;50.732;4.286;2022-08-04T05:20:05;22.80;94.40
61153;DHT22;47030;50.732;4.286;2022-08-04T05:22:49;22.80;94.30
61153;DHT22;47030;50.732;4.286;2022-08-04T05:25:24;22.80;94.30
61153;DHT22;47030;50.732;4.286;2022-08-04T05:27:56;22.90;94.20
61153;DHT22;47030;50.732;4.286;2022-08-04T05:30:26;23.10;94.10
61153;DHT22;47030;50.732;4.286;2022-08-04T05:33:26;23.20;93.90
61153;DHT22;47030;50.732;4.286;2022-08-04T05:35:58;23.60;93.30
61153;DHT22;47030;50.732;4.286;2022-08-04T05:38:28;23.80;92.80
61153;DHT22;47030;50.732;4.286;2022-08-04T05:40:55;24.10;92.50
61153;DHT22;47030;50.732;4.286;2022-08-04T05:43:22;24.40;91.90
61153;DHT22;47030;50.732;4.286;2022-08-04T05:45:49;25.00;90.70
61153;DHT22;47030;50.732;4.286;2022-08-04T05:48:16;26.40;86.90
61153;DHT22;47030;50.732;4.286;2022-08-04T05:50:46;27.90;81.40
61153;DHT22;47030;50.732;4.286;2022-08-04T05:53:14;28.80;77.50
61153;DHT22;47030;50.732;4.286;2022-08-04T05:55:40;28.90;76.50
61153;DHT22;47030;50.732;4.286;2022-08-04T05:58:06;28.70;76.40
61153;DHT22;47030;50.732;4.286;2022-08-04T06:00:34;29.10;74.80
61153;DHT22;47030;50.732;4.286;2022-08-04T06:03:01;30.20;71.60
61153;DHT22;47030;50.732;4.286;2022-08-04T06:05:27;32.10;66.30
61153;DHT22;47030;50.732;4.286;2022-08-04T06:07:53;32.50;63.80
61153;DHT22;47030;50.732;4.286;2022-08-04T06:10:19;32.40;62.50
61153;DHT22;47030;50.732;4.286;2022-08-04T06:12:51;32.10;62.10
61153;DHT22;47030;50.732;4.286;2022-08-04T06:15:19;31.30;62.70
61153;DHT22;47030;50.732;4.286;2022-08-04T06:17:48;30.50;64.40
61153;DHT22;47030;50.732;4.286;2022-08-04T06:20:16;31.20;63.70
61153;DHT22;47030;50.732;4.286;2022-08-04T06:22:45;32.30;60.40
61153;DHT22;47030;50.732;4.286;2022-08-04T06:25:16;32.60;59.60
61153;DHT22;47030;50.732;4.286;2022-08-04T06:27:46;32.40;59.20
61153;DHT22;47030;50.732;4.286;2022-08-04T06:30:13;32.40;58.70
61153;DHT22;47030;50.732;4.286;2022-08-04T06:32:42;32.70;57.80
61153;DHT22;47030;50.732;4.286;2022-08-04T06:35:21;32.40;57.70
61153;DHT22;47030;50.732;4.286;2022-08-04T06:37:48;31.60;59.80
61153;DHT22;47030;50.732;4.286;2022-08-04T06:40:17;32.70;58.00
61153;DHT22;47030;50.732;4.286;2022-08-04T06:42:43;34.60;54.40
61153;DHT22;47030;50.732;4.286;2022-08-04T06:45:11;36.10;50.80
61153;DHT22;47030;50.732;4.286;2022-08-04T06:47:39;37.00;48.60
61153;DHT22;47030;50.732;4.286;2022-08-04T06:50:07;38.00;45.50
61153;DHT22;47030;50.732;4.286;2022-08-04T06:52:33;38.60;44.00
61153;DHT22;47030;50.732;4.286;2022-08-04T06:54:59;39.10;43.70
61153;DHT22;47030;50.732;4.286;2022-08-04T06:57:28;39.80;42.30
61153;DHT22;47030;50.732;4.286;2022-08-04T07:00:08;39.20;42.30
61153;DHT22;47030;50.732;4.286;2022-08-04T07:02:49;38.60;43.10
61153;DHT22;47030;50.732;4.286;2022-08-04T07:05:15;37.60;43.70
61153;DHT22;47030;50.732;4.286;2022-08-04T07:07:43;37.50;44.10
61153;DHT22;47030;50.732;4.286;2022-08-04T07:10:10;38.00;43.70
61153;DHT22;47030;50.732;4.286;2022-08-04T07:12:37;37.30;44.70
61153;DHT22;47030;50.732;4.286;2022-08-04T07:15:05;36.20;46.00
61153;DHT22;47030;50.732;4.286;2022-08-04T07:17:31;34.60;48.80
61153;DHT22;47030;50.732;4.286;2022-08-04T07:19:58;33.70;50.40
61153;DHT22;47030;50.732;4.286;2022-08-04T07:22:25;32.60;52.70
61153;DHT22;47030;50.732;4.286;2022-08-04T07:24:56;31.70;54.90
61153;DHT22;47030;50.732;4.286;2022-08-04T07:27:22;31.20;55.90
61153;DHT22;47030;50.732;4.286;2022-08-04T07:29:48;30.70;57.60
61153;DHT22;47030;50.732;4.286;2022-08-04T07:32:17;30.30;58.80
61153;DHT22;47030;50.732;4.286;2022-08-04T07:34:43;30.00;59.90
61153;DHT22;47030;50.732;4.286;2022-08-04T07:37:09;29.80;60.60
61153;DHT22;47030;50.732;4.286;2022-08-04T07:39:35;29.80;60.80
61153;DHT22;47030;50.732;4.286;2022-08-04T07:42:02;29.60;61.40
61153;DHT22;47030;50.732;4.286;2022-08-04T07:44:34;29.50;62.30
61153;DHT22;47030;50.732;4.286;2022-08-04T07:47:01;29.20;62.80
61153;DHT22;47030;50.732;4.286;2022-08-04T07:49:28;28.90;63.80
61153;DHT22;47030;50.732;4.286;2022-08-04T07:51:54;29.10;64.10
61153;DHT22;47030;50.732;4.286;2022-08-04T07:54:20;29.30;63.40
61153;DHT22;47030;50.732;4.286;2022-08-04T07:56:47;29.90;62.20
61153;DHT22;47030;50.732;4.286;2022-08-04T07:59:17;30.00;61.70
61153;DHT22;47030;50.732;4.286;2022-08-04T08:01:45;29.80;62.20
61153;DHT22;47030;50.732;4.286;2022-08-04T08:04:11;29.60;63.00
61153;DHT22;47030;50.732;4.286;2022-08-04T08:06:38;29.00;64.30
61153;DHT22;47030;50.732;4.286;2022-08-04T08:09:13;28.80;64.80
61153;DHT22;47030;50.732;4.286;2022-08-04T08:11:40;28.70;65.50
61153;DHT22;47030;50.732;4.286;2022-08-04T08:14:06;28.60;66.40
61153;DHT22;47030;50.732;4.286;2022-08-04T08:16:36;28.40;67.30
61153;DHT22;47030;50.732;4.286;2022-08-04T08:19:03;28.40;67.40
61153;DHT22;47030;50.732;4.286;2022-08-04T08:21:29;28.30;68.40
61153;DHT22;47030;50.732;4.286;2022-08-04T08:23:56;28.10;68.10
61153;DHT22;47030;50.732;4.286;2022-08-04T08:26:22;27.90;69.10
61153;DHT22;47030;50.732;4.286;2022-08-04T08:28:48;27.90;69.60
61153;DHT22;47030;50.732;4.286;2022-08-04T08:31:14;27.80;70.20
61153;DHT22;47030;50.732;4.286;2022-08-04T08:33:40;27.60;70.60
61153;DHT22;47030;50.732;4.286;2022-08-04T08:41:40;26.70;73.60
61153;DHT22;47030;50.732;4.286;2022-08-04T08:49:53;26.00;77.10
61153;DHT22;47030;50.732;4.286;2022-08-04T08:55:36;25.90;77.60
61153;DHT22;47030;50.732;4.286;2022-08-04T09:11:26;25.10;85.20
61153;DHT22;47030;50.732;4.286;2022-08-04T09:14:04;25.10;87.20
61153;DHT22;47030;50.732;4.286;2022-08-04T09:19:14;25.00;89.10
61153;DHT22;47030;50.732;4.286;2022-08-04T09:22:10;25.00;88.60
61153;DHT22;47030;50.732;4.286;2022-08-04T09:25:02;25.00;88.10
61153;DHT22;47030;50.732;4.286;2022-08-04T09:27:43;25.40;88.30
61153;DHT22;47030;50.732;4.286;2022-08-04T09:30:12;25.60;86.80
61153;DHT22;47030;50.732;4.286;2022-08-04T09:35:54;27.10;83.80
61153;DHT22;47030;50.732;4.286;2022-08-04T09:38:50;27.90;81.80
61153;DHT22;47030;50.732;4.286;2022-08-04T09:49:30;27.90;77.20
61153;DHT22;47030;50.732;4.286;2022-08-04T09:52:08;28.10;77.30
61153;DHT22;47030;50.732;4.286;2022-08-04T09:54:48;28.90;75.70
61153;DHT22;47030;50.732;4.286;2022-08-04T10:00:16;33.50;63.10
61153;DHT22;47030;50.732;4.286;2022-08-04T10:02:50;35.10;58.30
61153;DHT22;47030;50.732;4.286;2022-08-04T10:05:21;36.40;55.10
61153;DHT22;47030;50.732;4.286;2022-08-04T10:10:58;39.40;47.80
61153;DHT22;47030;50.732;4.286;2022-08-04T10:13:47;39.80;46.10
61153;DHT22;47030;50.732;4.286;2022-08-04T10:16:23;40.30;44.20
61153;DHT22;47030;50.732;4.286;2022-08-04T10:19:19;39.10;45.70
61153;DHT22;47030;50.732;4.286;2022-08-04T10:22:10;37.50;48.30
61153;DHT22;47030;50.732;4.286;2022-08-04T10:27:33;34.70;53.20
61153;DHT22;47030;50.732;4.286;2022-08-04T10:30:02;33.90;54.70
61153;DHT22;47030;50.732;4.286;2022-08-04T10:32:59;32.70;56.80
61153;DHT22;47030;50.732;4.286;2022-08-04T10:35:32;32.20;59.20
61153;DHT22;47030;50.732;4.286;2022-08-04T10:38:17;32.30;59.20
61153;DHT22;47030;50.732;4.286;2022-08-04T10:48:53;34.80;54.00
61153;DHT22;47030;50.732;4.286;2022-08-04T10:51:48;34.60;55.00
61153;DHT22;47030;50.732;4.286;2022-08-04T10:54:22;34.10;55.90
61153;DHT22;47030;50.732;4.286;2022-08-04T10:56:58;34.50;55.10
61153;DHT22;47030;50.732;4.286;2022-08-04T11:00:12;34.60;54.40
61153;DHT22;47030;50.732;4.286;2022-08-04T11:08:53;33.60;56.10
61153;DHT22;47030;50.732;4.286;2022-08-04T11:11:00;33.80;55.40
61153;DHT22;47030;50.732;4.286;2022-08-04T11:13:39;33.80;55.30
61153;DHT22;47030;50.732;4.286;2022-08-04T11:16:13;33.70;55.80
61153;DHT22;47030;50.732;4.286;2022-08-04T11:19:05;33.70;56.00
61153;DHT22;47030;50.732;4.286;2022-08-04T11:21:33;33.90;55.70
61153;DHT22;47030;50.732;4.286;2022-08-04T11:24:24;34.30;54.80
61153;DHT22;47030;50.732;4.286;2022-08-04T11:26:56;34.10;55.60
61153;DHT22;47030;50.732;4.286;2022-08-04T11:29:55;33.80;55.60
61153;DHT22;47030;50.732;4.286;2022-08-04T11:35:01;32.60;57.60
61153;DHT22;47030;50.732;4.286;2022-08-04T11:37:49;32.30;58.80
61153;DHT22;47030;50.732;4.286;2022-08-04T11:40:28;31.90;59.60
61153;DHT22;47030;50.732;4.286;2022-08-04T11:43:03;31.40;60.40
61153;DHT22;47030;50.732;4.286;2022-08-04T11:45:35;31.40;60.70
61153;DHT22;47030;50.732;4.286;2022-08-04T11:48:28;31.70;60.40
61153;DHT22;47030;50.732;4.286;2022-08-04T11:50:58;32.50;59.40
61153;DHT22;47030;50.732;4.286;2022-08-04T11:53:27;32.60;58.80
61153;DHT22;47030;50.732;4.286;2022-08-04T11:55:59;32.90;58.00
61153;DHT22;47030;50.732;4.286;2022-08-04T11:58:25;33.30;57.30
61153;DHT22;47030;50.732;4.286;2022-08-04T12:01:05;33.40;55.60
61153;DHT22;47030;50.732;4.286;2022-08-04T12:03:55;33.60;56.10
61153;DHT22;47030;50.732;4.286;2022-08-04T12:06:30;33.70;56.30
61153;DHT22;47030;50.732;4.286;2022-08-04T12:14:52;33.60;55.00
61153;DHT22;47030;50.732;4.286;2022-08-04T12:17:26;33.80;55.30
61153;DHT22;47030;50.732;4.286;2022-08-04T12:20:00;33.80;54.30
61153;DHT22;47030;50.732;4.286;2022-08-04T12:22:30;33.60;55.50
61153;DHT22;47030;50.732;4.286;2022-08-04T12:25:13;33.90;53.70
61153;DHT22;47030;50.732;4.286;2022-08-04T12:30:12;34.00;53.40
61153;DHT22;47030;50.732;4.286;2022-08-04T12:32:50;33.80;51.90
61153;DHT22;47030;50.732;4.286;2022-08-04T12:35:30;33.60;53.20
61153;DHT22;47030;50.732;4.286;2022-08-04T12:38:04;33.70;52.90
61153;DHT22;47030;50.732;4.286;2022-08-04T12:40:54;33.20;53.80
61153;DHT22;47030;50.732;4.286;2022-08-04T12:43:38;32.90;56.20
61153;DHT22;47030;50.732;4.286;2022-08-04T12:46:25;32.90;55.00
61153;DHT22;47030;50.732;4.286;2022-08-04T12:48:59;32.70;56.20
61153;DHT22;47030;50.732;4.286;2022-08-04T12:51:27;32.60;55.80
61153;DHT22;47030;50.732;4.286;2022-08-04T12:53:54;32.20;57.20
61153;DHT22;47030;50.732;4.286;2022-08-04T12:56:26;32.00;57.50
61153;DHT22;47030;50.732;4.286;2022-08-04T12:59:00;32.00;58.10
61153;DHT22;47030;50.732;4.286;2022-08-04T13:01:27;32.20;57.60
61153;DHT22;47030;50.732;4.286;2022-08-04T13:04:23;32.40;58.50
61153;DHT22;47030;50.732;4.286;2022-08-04T13:06:59;32.60;58.00
61153;DHT22;47030;50.732;4.286;2022-08-04T13:09:32;32.90;57.40
61153;DHT22;47030;50.732;4.286;2022-08-04T13:12:05;32.80;57.60
61153;DHT22;47030;50.732;4.286;2022-08-04T13:14:40;32.70;57.10
61153;DHT22;47030;50.732;4.286;2022-08-04T13:17:09;32.90;57.30
61153;DHT22;47030;50.732;4.286;2022-08-04T13:19:35;32.70;56.70
61153;DHT22;47030;50.732;4.286;2022-08-04T13:22:02;32.90;56.80
61153;DHT22;47030;50.732;4.286;2022-08-04T13:24:28;33.00;56.20
61153;DHT22;47030;50.732;4.286;2022-08-04T13:26:58;33.30;55.40
61153;DHT22;47030;50.732;4.286;2022-08-04T13:29:39;33.40;56.40
61153;DHT22;47030;50.732;4.286;2022-08-04T13:32:05;33.40;56.30
61153;DHT22;47030;50.732;4.286;2022-08-04T13:34:33;33.10;56.00
61153;DHT22;47030;50.732;4.286;2022-08-04T13:37:01;33.00;56.10
61153;DHT22;47030;50.732;4.286;2022-08-04T13:39:28;32.80;57.10
61153;DHT22;47030;50.732;4.286;2022-08-04T13:41:56;32.90;56.40
61153;DHT22;47030;50.732;4.286;2022-08-04T13:44:26;32.80;57.20
61153;DHT22;47030;50.732;4.286;2022-08-04T13:46:58;32.80;58.40
61153;DHT22;47030;50.732;4.286;2022-08-04T13:49:25;32.90;55.70
61153;DHT22;47030;50.732;4.286;2022-08-04T13:51:55;33.20;56.20
61153;DHT22;47030;50.732;4.286;2022-08-04T13:54:22;33.40;55.20
61153;DHT22;47030;50.732;4.286;2022-08-04T13:56:54;33.40;55.20
61153;DHT22;47030;50.732;4.286;2022-08-04T13:59:25;33.20;55.50
61153;DHT22;47030;50.732;4.286;2022-08-04T14:02:03;33.10;56.20
61153;DHT22;47030;50.732;4.286;2022-08-04T14:04:31;33.10;55.40
61153;DHT22;47030;50.732;4.286;2022-08-04T14:09:33;33.40;54.70
61153;DHT22;47030;50.732;4.286;2022-08-04T14:12:08;33.40;53.60
61153;DHT22;47030;50.732;4.286;2022-08-04T14:14:36;33.40;53.70
61153;DHT22;47030;50.732;4.286;2022-08-04T14:17:12;33.20;53.90
61153;DHT22;47030;50.732;4.286;2022-08-04T14:20:00;33.10;53.50
61153;DHT22;47030;50.732;4.286;2022-08-04T14:24:59;32.70;54.80
61153;DHT22;47030;50.732;4.286;2022-08-04T14:27:27;32.90;55.40
61153;DHT22;47030;50.732;4.286;2022-08-04T14:29:53;32.70;55.00
61153;DHT22;47030;50.732;4.286;2022-08-04T14:32:19;32.60;56.30
61153;DHT22;47030;50.732;4.286;2022-08-04T14:34:45;32.60;57.40
61153;DHT22;47030;50.732;4.286;2022-08-04T14:37:15;32.60;56.20
61153;DHT22;47030;50.732;4.286;2022-08-04T14:39:46;32.70;56.50
61153;DHT22;47030;50.732;4.286;2022-08-04T14:42:13;32.60;56.00
61153;DHT22;47030;50.732;4.286;2022-08-04T14:44:54;32.60;54.50
61153;DHT22;47030;50.732;4.286;2022-08-04T14:47:44;32.30;55.00
61153;DHT22;47030;50.732;4.286;2022-08-04T14:50:11;32.00;55.60
61153;DHT22;47030;50.732;4.286;2022-08-04T14:52:37;31.80;55.70
61153;DHT22;47030;50.732;4.286;2022-08-04T14:55:23;31.60;54.80
61153;DHT22;47030;50.732;4.286;2022-08-04T14:57:50;31.50;56.00
61153;DHT22;47030;50.732;4.286;2022-08-04T15:00:34;31.40;57.20
61153;DHT22;47030;50.732;4.286;2022-08-04T15:03:05;31.30;58.10
61153;DHT22;47030;50.732;4.286;2022-08-04T15:05:33;31.10;57.90
61153;DHT22;47030;50.732;4.286;2022-08-04T15:08:00;31.30;59.00
61153;DHT22;47030;50.732;4.286;2022-08-04T15:10:26;31.20;59.00
61153;DHT22;47030;50.732;4.286;2022-08-04T15:12:53;31.10;59.50
61153;DHT22;47030;50.732;4.286;2022-08-04T15:15:19;30.90;58.60
61153;DHT22;47030;50.732;4.286;2022-08-04T15:17:45;30.90;59.70
61153;DHT22;47030;50.732;4.286;2022-08-04T15:20:12;30.80;59.50
61153;DHT22;47030;50.732;4.286;2022-08-04T15:22:38;31.00;59.40
61153;DHT22;47030;50.732;4.286;2022-08-04T15:25:04;31.00;59.10
61153;DHT22;47030;50.732;4.286;2022-08-04T15:27:34;30.90;60.00
61153;DHT22;47030;50.732;4.286;2022-08-04T15:30:05;30.90;60.90
61153;DHT22;47030;50.732;4.286;2022-08-04T15:32:34;31.00;59.70
61153;DHT22;47030;50.732;4.286;2022-08-04T15:35:09;31.10;59.80
61153;DHT22;47030;50.732;4.286;2022-08-04T15:37:56;31.10;58.30
61153;DHT22;47030;50.732;4.286;2022-08-04T15:45:49;31.10;58.70
61153;DHT22;47030;50.732;4.286;2022-08-04T15:53:26;31.30;58.40
61153;DHT22;47030;50.732;4.286;2022-08-04T15:55:53;31.30;58.00
61153;DHT22;47030;50.732;4.286;2022-08-04T15:58:19;31.30;58.50
61153;DHT22;47030;50.732;4.286;2022-08-04T16:16:29;31.20;57.50
61153;DHT22;47030;50.732;4.286;2022-08-04T16:19:24;31.30;57.90
61153;DHT22;47030;50.732;4.286;2022-08-04T16:24:19;31.40;58.20
61153;DHT22;47030;50.732;4.286;2022-08-04T16:26:51;31.50;57.20
61153;DHT22;47030;50.732;4.286;2022-08-04T16:32:11;31.60;57.30
61153;DHT22;47030;50.732;4.286;2022-08-04T16:37:13;31.30;57.10
61153;DHT22;47030;50.732;4.286;2022-08-04T16:39:39;31.10;58.40
61153;DHT22;47030;50.732;4.286;2022-08-04T16:42:32;30.90;58.80
61153;DHT22;47030;50.732;4.286;2022-08-04T16:50:15;30.80;58.90
61153;DHT22;47030;50.732;4.286;2022-08-04T16:52:51;30.60;58.70
61153;DHT22;47030;50.732;4.286;2022-08-04T16:55:24;30.40;59.20
61153;DHT22;47030;50.732;4.286;2022-08-04T16:57:54;30.00;60.20
61153;DHT22;47030;50.732;4.286;2022-08-04T17:00:37;29.70;60.90
61153;DHT22;47030;50.732;4.286;2022-08-04T17:03:08;29.30;61.50
61153;DHT22;47030;50.732;4.286;2022-08-04T17:05:34;29.10;61.80
61153;DHT22;47030;50.732;4.286;2022-08-04T17:08:02;28.90;62.40
61153;DHT22;47030;50.732;4.286;2022-08-04T17:10:40;28.80;62.80
61153;DHT22;47030;50.732;4.286;2022-08-04T17:13:21;28.70;63.60
61153;DHT22;47030;50.732;4.286;2022-08-04T17:15:49;28.60;63.80
61153;DHT22;47030;50.732;4.286;2022-08-04T17:18:18;28.60;63.60
61153;DHT22;47030;50.732;4.286;2022-08-04T17:20:44;28.60;63.60
61153;DHT22;47030;50.732;4.286;2022-08-04T17:23:30;28.40;63.80
61153;DHT22;47030;50.732;4.286;2022-08-04T17:26:18;28.30;64.00
61153;DHT22;47030;50.732;4.286;2022-08-04T17:28:46;28.20;63.90
61153;DHT22;47030;50.732;4.286;2022-08-04T17:31:13;28.10;64.20
61153;DHT22;47030;50.732;4.286;2022-08-04T17:33:44;28.00;64.10
61153;DHT22;47030;50.732;4.286;2022-08-04T17:36:10;28.00;64.00
61153;DHT22;47030;50.732;4.286;2022-08-04T17:38:46;28.00;64.30
61153;DHT22;47030;50.732;4.286;2022-08-04T17:41:14;27.70;65.00
61153;DHT22;47030;50.732;4.286;2022-08-04T17:43:54;27.60;65.30
61153;DHT22;47030;50.732;4.286;2022-08-04T17:46:44;27.60;65.50
61153;DHT22;47030;50.732;4.286;2022-08-04T17:49:19;27.60;65.20
61153;DHT22;47030;50.732;4.286;2022-08-04T17:51:53;27.70;65.00
61153;DHT22;47030;50.732;4.286;2022-08-04T17:54:29;27.70;64.80
61153;DHT22;47030;50.732;4.286;2022-08-04T17:57:16;27.50;65.20
61153;DHT22;47030;50.732;4.286;2022-08-04T17:59:53;27.40;65.10
61153;DHT22;47030;50.732;4.286;2022-08-04T18:02:25;27.30;65.60
61153;DHT22;47030;50.732;4.286;2022-08-04T18:04:51;27.30;65.80
61153;DHT22;47030;50.732;4.286;2022-08-04T18:07:22;27.20;65.60
61153;DHT22;47030;50.732;4.286;2022-08-04T18:09:50;27.10;65.60
61153;DHT22;47030;50.732;4.286;2022-08-04T18:12:31;27.00;65.60
61153;DHT22;47030;50.732;4.286;2022-08-04T18:14:59;26.90;66.20
61153;DHT22;47030;50.732;4.286;2022-08-04T18:17:42;26.90;66.20
61153;DHT22;47030;50.732;4.286;2022-08-04T18:20:13;26.80;66.50
61153;DHT22;47030;50.732;4.286;2022-08-04T18:22:42;26.60;66.90
61153;DHT22;47030;50.732;4.286;2022-08-04T18:25:10;26.50;66.90
61153;DHT22;47030;50.732;4.286;2022-08-04T18:27:53;26.50;66.60
61153;DHT22;47030;50.732;4.286;2022-08-04T18:30:21;26.50;66.70
61153;DHT22;47030;50.732;4.286;2022-08-04T18:32:47;26.30;66.70
61153;DHT22;47030;50.732;4.286;2022-08-04T18:35:13;26.30;66.60
61153;DHT22;47030;50.732;4.286;2022-08-04T18:37:40;26.10;66.60
61153;DHT22;47030;50.732;4.286;2022-08-04T18:40:07;25.90;67.20
61153;DHT22;47030;50.732;4.286;2022-08-04T18:42:34;25.80;66.90
61153;DHT22;47030;50.732;4.286;2022-08-04T18:45:01;25.60;66.80
61153;DHT22;47030;50.732;4.286;2022-08-04T18:47:26;25.60;67.00
61153;DHT22;47030;50.732;4.286;2022-08-04T18:49:53;25.50;66.60
61153;DHT22;47030;50.732;4.286;2022-08-04T18:52:20;25.40;68.30
61153;DHT22;47030;50.732;4.286;2022-08-04T18:54:46;25.30;70.40
61153;DHT22;47030;50.732;4.286;2022-08-04T18:57:20;25.20;70.40
61153;DHT22;47030;50.732;4.286;2022-08-04T18:59:46;25.10;72.80
61153;DHT22;47030;50.732;4.286;2022-08-04T19:02:13;24.90;73.40
61153;DHT22;47030;50.732;4.286;2022-08-04T19:04:39;24.80;75.40
61153;DHT22;47030;50.732;4.286;2022-08-04T19:07:05;24.60;77.40
61153;DHT22;47030;50.732;4.286;2022-08-04T19:09:31;24.40;79.80
61153;DHT22;47030;50.732;4.286;2022-08-04T19:11:57;24.10;81.90
61153;DHT22;47030;50.732;4.286;2022-08-04T19:14:23;23.90;83.60
61153;DHT22;47030;50.732;4.286;2022-08-04T19:16:49;23.70;84.80
61153;DHT22;47030;50.732;4.286;2022-08-04T19:19:15;23.60;86.40
61153;DHT22;47030;50.732;4.286;2022-08-04T19:21:43;23.70;89.80
61153;DHT22;47030;50.732;4.286;2022-08-04T19:24:09;23.50;89.80
61153;DHT22;47030;50.732;4.286;2022-08-04T19:26:36;23.40;90.40
61153;DHT22;47030;50.732;4.286;2022-08-04T19:29:03;23.30;91.30
61153;DHT22;47030;50.732;4.286;2022-08-04T19:31:29;23.30;92.30
61153;DHT22;47030;50.732;4.286;2022-08-04T19:33:55;23.20;93.50
61153;DHT22;47030;50.732;4.286;2022-08-04T19:36:23;23.20;94.10
61153;DHT22;47030;50.732;4.286;2022-08-04T19:38:49;23.10;94.50
61153;DHT22;47030;50.732;4.286;2022-08-04T19:41:15;22.90;93.70
61153;DHT22;47030;50.732;4.286;2022-08-04T19:43:41;22.70;93.30
61153;DHT22;47030;50.732;4.286;2022-08-04T19:46:07;22.50;93.80
61153;DHT22;47030;50.732;4.286;2022-08-04T19:48:34;22.50;94.80
61153;DHT22;47030;50.732;4.286;2022-08-04T19:51:00;22.40;95.10
61153;DHT22;47030;50.732;4.286;2022-08-04T19:53:25;22.40;95.40
61153;DHT22;47030;50.732;4.286;2022-08-04T19:55:51;22.40;95.30
61153;DHT22;47030;50.732;4.286;2022-08-04T19:58:17;22.50;95.30
61153;DHT22;47030;50.732;4.286;2022-08-04T20:00:46;22.40;95.20
61153;DHT22;47030;50.732;4.286;2022-08-04T20:03:12;22.40;95.60
61153;DHT22;47030;50.732;4.286;2022-08-04T20:05:40;22.40;96.00
61153;DHT22;47030;50.732;4.286;2022-08-04T20:08:06;22.40;95.70
61153;DHT22;47030;50.732;4.286;2022-08-04T20:10:32;22.30;96.10
61153;DHT22;47030;50.732;4.286;2022-08-04T20:12:58;22.10;96.10
61153;DHT22;47030;50.732;4.286;2022-08-04T20:15:24;22.00;96.50
61153;DHT22;47030;50.732;4.286;2022-08-04T20:17:50;21.90;96.80